リスボン の空港の天気 - METARとTAF

ポルテラ空港 ( LPPT / LIS ) - ポルトガル リスボン
飛行場実況気象(Metar)
観測時間02/05 19:30 WET (02/05 19:30 UTC)
風向・風速北北東 3m/s
視程10km以上
天気現象
なし
気温13℃
湿度51%
気圧1027hPa
METARLPPT 051930Z 02006KT CAVOK 13/03 Q1027
過去の天気等 Google飛行場航空写真 Wunderground天気予報

過去48時間のMETAR

飛行場予報(TAF)
発表時間: 2/05 17:00 WET (2/05 17:00 UTC)
予報対象時間: 5日18時 WET ~ 7日0時 WET
風向・風速北北東 3m/s
視程10km以上
なし
6日15時 WET ~ 6日18時 WET に徐々に
風向・風速北北西 5m/s
6日21時 WET ~ 6日24時 WET に徐々に
風向・風速北北東 5m/s
TAF LPPT 051700Z 0518/0624 03005KT CAVOK
BECMG 0615/0618 34010KT
BECMG 0621/0624 03010KT